Time;durP1;ratioP1;P1;durP2;ratioP2;P2;SDS_P1;SDS_P2;PMS_P1;PMS_P2;Temp;Humidity;BMP_temperature;BMP_pressure;BME280_temperature;BME280_humidity;BME280_pressure;Samples;Min_cycle;Max_cycle;Signal;HPM_P1;HPM_P2
2021/09/05 00:00:00;;;;;;;1.50;0.90;;;;;;;13.88;100.00;-1365.63;6276260;22;20463;-72
2021/09/05 00:02:27;;;;;;;0.80;0.73;;;;;;;14.00;100.00;-1831.19;6276938;22;20379;-72
2021/09/05 00:04:55;;;;;;;0.70;0.70;;;;;;;14.01;100.00;-2228.81;6249814;22;20395;-72
2021/09/05 00:07:25;;;;;;;0.70;0.70;;;;;;;13.94;100.00;-2494.91;6276296;22;20394;-72
2021/09/05 00:09:52;;;;;;;0.70;0.60;;;;;;;13.90;100.00;-2765.94;6224263;22;20779;-73
2021/09/05 00:12:19;;;;;;;0.70;0.60;;;;;;;13.89;100.00;-3186.22;6276838;22;20384;-73
2021/09/05 00:14:46;;;;;;;0.70;0.60;;;;;;;13.80;100.00;-3573.59;6275223;22;20905;-72
2021/09/05 00:17:14;;;;;;;0.70;0.60;;;;;;;13.77;100.00;-3925.38;6249413;22;20405;-72
2021/09/05 00:19:41;;;;;;;1.13;1.03;;;;;;;13.70;100.00;-4191.06;6224164;22;20480;-73
2021/09/05 00:22:07;;;;;;;0.70;0.60;;;;;;;13.69;100.00;-4474.41;6249658;22;20402;-72
2021/09/05 00:24:36;;;;;;;0.70;0.60;;;;;;;13.72;100.00;-4593.31;6249073;22;20390;-73
2021/09/05 00:27:04;;;;;;;0.80;0.70;;;;;;;13.75;100.00;-4843.78;6248705;22;20489;-73
2021/09/05 00:29:32;;;;;;;0.70;0.60;;;;;;;13.83;100.00;-4907.09;6276079;22;20374;-73
2021/09/05 00:31:59;;;;;;;0.70;0.60;;;;;;;13.80;100.00;-5127.16;6275710;22;20372;-73
2021/09/05 00:34:26;;;;;;;0.70;0.60;;;;;;;13.79;100.00;-5101.84;6222595;22;20477;-73
2021/09/05 00:36:56;;;;;;;0.70;0.60;;;;;;;13.70;100.00;-5268.63;6248398;22;20411;-72
2021/09/05 00:39:23;;;;;;;0.70;0.60;;;;;;;13.67;100.00;-5296.41;6275320;22;20429;-72
2021/09/05 00:41:55;;;;;;;0.70;0.60;;;;;;;13.71;100.00;-5248.44;6225786;22;20395;-73
2021/09/05 00:44:22;;;;;;;0.70;0.60;;;;;;;13.68;100.00;-5288.81;6250708;22;20419;-73
2021/09/05 00:46:49;;;;;;;0.70;0.53;;;;;;;13.69;100.00;-5369.78;6250880;22;20461;-73
2021/09/05 00:49:17;;;;;;;0.70;0.60;;;;;;;13.67;100.00;-5460.78;6225836;22;20434;-73
2021/09/05 00:51:45;;;;;;;0.70;0.67;;;;;;;13.67;100.00;-5594.81;6250276;22;20411;-73
2021/09/05 00:54:32;;;;;;;0.90;0.90;;;;;;;13.66;100.00;-5824.88;6255319;22;20402;-72
2021/09/05 00:57:01;;;;;;;2.80;2.20;;;;;;;13.66;100.00;-5784.41;6277412;22;20388;-73
2021/09/05 00:59:33;;;;;;;0.80;0.80;;;;;;;13.66;100.00;-5969.00;6225751;22;20423;-72
2021/09/05 01:02:03;;;;;;;0.80;0.60;;;;;;;13.61;100.00;-6302.56;6251703;22;20367;-72
2021/09/05 01:04:30;;;;;;;0.70;0.60;;;;;;;13.58;100.00;-6502.13;6250395;22;20413;-72
2021/09/05 01:06:58;;;;;;;1.43;1.33;;;;;;;13.52;100.00;-6929.06;6225716;22;20407;-72
2021/09/05 01:09:25;;;;;;;0.70;0.60;;;;;;;13.50;100.00;-7391.34;6225000;22;20427;-73
2021/09/05 01:11:56;;;;;;;0.70;0.60;;;;;;;13.46;100.00;-8095.97;6250665;22;20387;-72
2021/09/05 01:14:26;;;;;;;0.70;0.60;;;;;;;13.46;100.00;-8502.66;6278183;22;20839;-72
2021/09/05 01:16:54;;;;;;;0.70;0.70;;;;;;;13.41;100.00;-8931.59;6251391;22;20391;-72
2021/09/05 01:19:34;;;;;;;0.73;0.70;;;;;;;13.38;100.00;-9274.72;6277333;22;20419;-72
2021/09/05 01:22:21;;;;;;;0.70;0.60;;;;;;;13.38;100.00;-9597.88;6276290;22;20403;-73
2021/09/05 01:25:08;;;;;;;0.80;0.80;;;;;;;13.34;100.00;-9955.94;6277260;22;20743;-72
2021/09/05 01:27:58;;;;;;;1.53;0.80;;;;;;;13.31;100.00;-10155.00;6276428;22;20696;-72
2021/09/05 01:30:37;;;;;;;0.70;0.60;;;;;;;13.40;100.00;-10277.09;6278013;22;20372;-72
2021/09/05 01:33:08;;;;;;;0.70;0.60;;;;;;;13.45;100.00;-10557.75;6277903;22;20846;-72
2021/09/05 01:35:51;;;;;;;0.70;0.63;;;;;;;13.54;100.00;-11144.31;6250654;22;20410;-73
2021/09/05 01:38:40;;;;;;;0.70;0.60;;;;;;;13.59;100.00;-11599.06;6277652;22;20534;-73
2021/09/05 01:41:42;;;;;;;0.70;0.60;;;;;;;13.59;100.00;-11959.94;6249189;22;20431;-72
2021/09/05 01:44:15;;;;;;;0.70;0.70;;;;;;;13.53;100.00;-12032.41;6276931;22;20386;-72
2021/09/05 01:47:01;;;;;;;0.70;0.60;;;;;;;13.41;100.00;-12308.34;6229950;22;20431;-72
2021/09/05 01:49:37;;;;;;;0.70;0.70;;;;;;;13.43;100.00;-12268.31;6253031;22;20373;-71
2021/09/05 01:52:24;;;;;;;0.70;0.60;;;;;;;13.39;100.00;-12474.63;6254229;22;20403;-72
2021/09/05 01:55:11;;;;;;;0.70;0.60;;;;;;;13.43;100.00;-12583.56;6277376;22;20423;-72
2021/09/05 01:58:10;;;;;;;0.70;0.60;;;;;;;13.35;100.00;-12839.78;6241849;22;20398;-72
2021/09/05 02:01:04;;;;;;;0.70;0.60;;;;;;;13.23;100.00;-13115.41;6211142;22;20398;-72
2021/09/05 02:04:06;;;;;;;0.70;0.60;;;;;;;13.17;100.00;-13248.19;6257885;22;20480;-71
2021/09/05 02:06:52;;;;;;;1.27;1.17;;;;;;;13.22;100.00;-13153.06;6277758;22;20371;-72
2021/09/05 02:09:53;;;;;;;0.70;0.70;;;;;;;13.16;100.00;-13474.84;6242636;22;20407;-72
2021/09/05 02:12:50;;;;;;;0.73;0.70;;;;;;;13.12;100.00;-13683.41;6142822;22;20408;-72
2021/09/05 02:15:54;;;;;;;0.80;0.80;;;;;;;13.01;100.00;-14011.94;6233454;22;20471;-72
2021/09/05 02:18:47;;;;;;;0.70;0.60;;;;;;;13.00;100.00;-14117.59;6229810;22;20827;-73
2021/09/05 02:21:33;;;;;;;0.70;0.60;;;;;;;13.01;100.00;-14279.00;6276990;22;20403;-72
2021/09/05 02:24:20;;;;;;;0.70;0.63;;;;;;;13.02;100.00;-14412.69;6277311;22;20430;-72
2021/09/05 02:27:31;;;;;;;0.70;0.70;;;;;;;13.04;100.00;-14574.25;6276674;22;20930;-72
2021/09/05 02:30:19;;;;;;;1.23;1.13;;;;;;;13.02;100.00;-14722.53;6274776;22;20394;-72
2021/09/05 02:33:10;;;;;;;0.70;0.60;;;;;;;12.99;100.00;-14989.03;6276818;22;20878;-73
2021/09/05 02:35:58;;;;;;;0.70;0.60;;;;;;;12.99;100.00;-15150.22;6274882;22;20490;-72
2021/09/05 02:38:45;;;;;;;0.70;0.60;;;;;;;13.01;100.00;-15271.47;6254266;22;20617;-72
2021/09/05 02:41:32;;;;;;;0.90;0.83;;;;;;;13.01;100.00;-15553.53;6249221;22;20402;-72
2021/09/05 02:44:37;;;;;;;0.70;0.70;;;;;;;13.03;100.00;-15760.41;6183596;23;20448;-72
2021/09/05 02:47:42;;;;;;;0.80;0.70;;;;;;;13.09;100.00;-15859.59;6182432;23;20405;-72
2021/09/05 02:50:29;;;;;;;0.70;0.67;;;;;;;13.14;100.00;-15908.41;6241487;22;20789;-71
2021/09/05 02:53:26;;;;;;;0.80;0.80;;;;;;;13.09;100.00;-16182.03;6276878;22;20423;-72
2021/09/05 02:56:17;;;;;;;0.70;0.60;;;;;;;13.05;100.00;-16219.09;6262849;22;20398;-72
2021/09/05 02:59:02;;;;;;;0.70;0.60;;;;;;;13.09;100.00;-16169.34;6276895;22;20522;-72
2021/09/05 03:01:51;;;;;;;0.70;0.50;;;;;;;13.09;100.00;-16325.56;6249870;22;20399;-72
2021/09/05 03:04:28;;;;;;;0.80;0.70;;;;;;;13.12;100.00;-16396.66;6287483;22;20471;-72
2021/09/05 03:07:28;;;;;;;0.70;0.60;;;;;;;13.19;100.00;-16680.00;6248926;22;20504;-72
2021/09/05 03:10:03;;;;;;;0.70;0.60;;;;;;;13.16;100.00;-16699.66;6276717;22;20414;-72
2021/09/05 03:12:48;;;;;;;0.70;0.60;;;;;;;13.16;100.00;-16870.88;6275427;22;20420;-72
2021/09/05 03:15:21;;;;;;;0.70;0.67;;;;;;;13.13;100.00;-16970.84;6251737;22;20436;-72
2021/09/05 03:18:06;;;;;;;0.70;0.60;;;;;;;13.12;100.00;-17106.59;6228275;22;20925;-72
2021/09/05 03:21:10;;;;;;;0.70;0.60;;;;;;;13.04;100.00;-17271.16;6249553;22;20407;-73
2021/09/05 03:23:57;;;;;;;0.70;0.70;;;;;;;13.00;100.00;-17270.28;6250100;22;20472;-72
2021/09/05 03:26:31;;;;;;;0.70;0.60;;;;;;;13.00;100.00;-17215.03;6275492;22;20385;-72
2021/09/05 03:29:24;;;;;;;0.70;0.60;;;;;;;12.95;100.00;-17432.78;6217750;22;20868;-72
2021/09/05 03:32:17;;;;;;;0.70;0.67;;;;;;;12.90;100.00;-17489.69;6251447;22;20426;-72
2021/09/05 03:35:07;;;;;;;0.70;0.60;;;;;;;12.82;100.00;-17588.59;6281122;22;20374;-72
2021/09/05 03:37:54;;;;;;;0.70;0.70;;;;;;;12.80;100.00;-17681.25;6283269;22;20970;-72
2021/09/05 03:40:44;;;;;;;0.97;0.70;;;;;;;12.73;100.00;-17792.88;6275980;22;20488;-72
2021/09/05 03:43:15;;;;;;;0.70;0.60;;;;;;;12.77;100.00;-17849.13;6249023;22;20406;-72
2021/09/05 03:46:05;;;;;;;0.70;0.60;;;;;;;12.77;100.00;-18123.31;6246350;22;20883;-72
2021/09/05 03:48:50;;;;;;;0.70;0.60;;;;;;;12.85;100.00;-18248.28;6276507;22;20750;-71
2021/09/05 03:51:18;;;;;;;0.70;0.70;;;;;;;12.84;100.00;-18401.50;6248989;22;20482;-71
2021/09/05 03:53:48;;;;;;;0.70;0.60;;;;;;;12.77;100.00;-18583.59;6225448;22;20418;-72
2021/09/05 03:56:18;;;;;;;0.70;0.60;;;;;;;12.73;100.00;-18761.31;6248925;22;20425;-72
2021/09/05 03:58:49;;;;;;;0.70;0.60;;;;;;;12.69;100.00;-18870.88;6248399;22;20777;-72
2021/09/05 04:01:18;;;;;;;0.70;0.70;;;;;;;12.67;100.00;-18973.50;6249476;22;20438;-71
2021/09/05 04:03:54;;;;;;;0.70;0.60;;;;;;;12.68;100.00;-19104.47;6249611;22;20417;-71
2021/09/05 04:06:21;;;;;;;0.70;0.60;;;;;;;12.62;100.00;-19344.34;6249480;22;20410;-71
2021/09/05 04:08:51;;;;;;;0.70;0.57;;;;;;;12.57;100.00;-19496.56;6275934;22;20424;-71
2021/09/05 04:11:18;;;;;;;0.70;0.60;;;;;;;12.73;100.00;-19492.91;6248332;22;20412;-70
2021/09/05 04:13:45;;;;;;;0.70;0.60;;;;;;;12.71;100.00;-19668.50;6248559;22;20465;-71
2021/09/05 04:16:14;;;;;;;0.70;0.70;;;;;;;12.67;100.00;-19800.59;6251732;22;20488;-70
2021/09/05 04:18:41;;;;;;;0.80;0.70;;;;;;;12.61;100.00;-19892.19;6277196;22;20872;-72
2021/09/05 04:21:08;;;;;;;0.70;0.60;;;;;;;12.62;100.00;-19892.31;6225637;22;20478;-71
2021/09/05 04:23:35;;;;;;;0.70;0.60;;;;;;;12.58;100.00;-19898.94;6277994;22;20406;-71
2021/09/05 04:26:02;;;;;;;0.70;0.70;;;;;;;12.57;100.00;-19906.22;6275978;22;20767;-71
2021/09/05 04:28:29;;;;;;;1.37;1.27;;;;;;;12.52;100.00;-19975.44;6225118;22;21255;-69
2021/09/05 04:30:56;;;;;;;0.70;0.70;;;;;;;12.54;100.00;-20071.31;6277199;22;20771;-72
2021/09/05 04:33:25;;;;;;;0.70;0.60;;;;;;;12.53;100.00;-20189.16;6277940;22;20386;-72
2021/09/05 04:35:52;;;;;;;0.70;0.60;;;;;;;12.52;100.00;-20234.13;6277414;22;20985;-72
2021/09/05 04:38:19;;;;;;;0.80;0.70;;;;;;;12.51;100.00;-20266.66;6250653;22;20488;-72
2021/09/05 04:40:48;;;;;;;0.70;0.50;;;;;;;12.51;100.00;-20236.50;6250418;22;20476;-71
2021/09/05 04:43:16;;;;;;;0.70;0.70;;;;;;;12.48;100.00;-20230.69;6250165;22;20456;-71
2021/09/05 04:45:43;;;;;;;0.70;0.60;;;;;;;12.47;100.00;-20190.09;6277465;22;20386;-71
2021/09/05 04:48:11;;;;;;;0.70;0.60;;;;;;;12.42;100.00;-20249.09;6250016;22;20452;-71
2021/09/05 04:50:39;;;;;;;0.93;0.90;;;;;;;12.39;100.00;-20225.69;6278309;22;20815;-71
2021/09/05 04:53:06;;;;;;;0.70;0.70;;;;;;;12.35;100.00;-20222.13;6251369;22;20405;-71
2021/09/05 04:55:33;;;;;;;0.70;0.60;;;;;;;12.32;100.00;-20188.94;6277329;22;20388;-71
2021/09/05 04:57:59;;;;;;;0.70;0.60;;;;;;;12.28;100.00;-20202.81;6226547;22;20391;-71
2021/09/05 05:00:26;;;;;;;0.70;0.60;;;;;;;12.37;100.00;-20192.63;6252577;22;20433;-71
2021/09/05 05:02:55;;;;;;;0.70;0.60;;;;;;;12.41;100.00;-20241.41;6277716;22;20458;-71
2021/09/05 05:05:23;;;;;;;0.70;0.60;;;;;;;12.45;100.00;-20239.97;6250066;22;20485;-71
2021/09/05 05:07:54;;;;;;;0.70;0.60;;;;;;;12.51;100.00;-20246.44;6278106;22;20418;-71
2021/09/05 05:10:21;;;;;;;0.70;0.60;;;;;;;12.52;100.00;-20246.81;6277340;22;20393;-71
2021/09/05 05:12:48;;;;;;;0.70;0.60;;;;;;;12.49;100.00;-20225.94;6250407;22;20556;-71
2021/09/05 05:15:15;;;;;;;0.80;0.70;;;;;;;12.51;100.00;-20123.44;6277853;22;20701;-71
2021/09/05 05:17:42;;;;;;;0.70;0.70;;;;;;;12.53;100.00;-20036.00;6276613;22;20394;-71
2021/09/05 05:20:11;;;;;;;0.70;0.60;;;;;;;12.50;100.00;-20002.56;6277009;22;20481;-71
2021/09/05 05:22:39;;;;;;;0.70;0.60;;;;;;;12.51;100.00;-19927.31;6277660;22;20410;-71
2021/09/05 05:25:08;;;;;;;0.70;0.70;;;;;;;12.51;100.00;-19924.91;6276346;22;20483;-71
2021/09/05 05:27:36;;;;;;;0.70;0.60;;;;;;;12.56;100.00;-19860.88;6249582;22;20459;-72
2021/09/05 05:30:04;;;;;;;1.20;1.00;;;;;;;12.63;100.00;-19807.25;6276313;22;20375;-71
2021/09/05 05:32:31;;;;;;;0.70;0.60;;;;;;;12.68;100.00;-19810.91;6277120;22;20803;-71
2021/09/05 05:34:59;;;;;;;0.70;0.70;;;;;;;12.71;100.00;-19789.06;6276832;22;20374;-72
2021/09/05 05:37:25;;;;;;;0.70;0.60;;;;;;;12.76;100.00;-19735.03;6277651;22;20473;-71
2021/09/05 05:39:53;;;;;;;0.70;0.53;;;;;;;12.81;100.00;-19696.19;6276769;22;20752;-71
2021/09/05 05:42:21;;;;;;;2.80;1.10;;;;;;;12.88;100.00;-19657.47;6276786;22;20471;-71
2021/09/05 05:44:48;;;;;;;2.60;1.90;;;;;;;12.92;100.00;-19623.28;6277339;22;20461;-71
2021/09/05 05:47:15;;;;;;;0.70;0.60;;;;;;;13.01;100.00;-19575.38;6277548;22;20457;-71
2021/09/05 05:49:46;;;;;;;0.70;0.70;;;;;;;13.08;100.00;-19531.63;6276874;22;20371;-71
2021/09/05 05:52:13;;;;;;;0.70;0.70;;;;;;;13.18;100.00;-19380.66;6277578;22;20399;-71
2021/09/05 05:54:40;;;;;;;0.70;0.50;;;;;;;13.24;100.00;-19253.81;6277426;22;20383;-71
2021/09/05 05:57:07;;;;;;;0.70;0.60;;;;;;;13.34;100.00;-19145.53;6276870;22;20441;-71
2021/09/05 05:59:35;;;;;;;0.70;0.60;;;;;;;13.46;100.00;-19080.38;6276664;22;20436;-71
2021/09/05 06:02:03;;;;;;;0.70;0.70;;;;;;;13.55;100.00;-19004.53;6251882;22;20731;-71
2021/09/05 06:04:30;;;;;;;0.70;0.60;;;;;;;13.63;100.00;-18963.53;6280350;22;20372;-71
2021/09/05 06:06:58;;;;;;;0.70;0.60;;;;;;;13.76;100.00;-18818.19;6277312;22;20479;-72
2021/09/05 06:09:46;;;;;;;0.70;0.60;;;;;;;13.91;100.00;-18725.91;6277583;22;20395;-72
2021/09/05 06:12:13;;;;;;;0.70;0.70;;;;;;;14.00;100.00;-18478.47;6277181;22;20368;-71
2021/09/05 06:14:41;;;;;;;0.73;0.70;;;;;;;14.13;100.00;-18194.00;6277277;22;20387;-71
2021/09/05 06:17:11;;;;;;;0.70;0.60;;;;;;;14.32;100.00;-17956.28;6276075;22;20379;-72
2021/09/05 06:19:38;;;;;;;0.70;0.60;;;;;;;14.51;100.00;-17688.00;6276566;22;20455;-71
2021/09/05 06:22:06;;;;;;;1.03;1.03;;;;;;;14.63;100.00;-17511.47;6275009;22;20493;-71
2021/09/05 06:24:33;;;;;;;0.80;0.80;;;;;;;14.79;100.00;-17209.31;6249496;22;20413;-72
2021/09/05 06:27:00;;;;;;;0.70;0.60;;;;;;;14.98;100.00;-16789.13;6249594;22;20383;-71
2021/09/05 06:29:30;;;;;;;0.80;0.70;;;;;;;15.10;100.00;-16316.59;6277131;22;20378;-71
2021/09/05 06:31:59;;;;;;;0.80;0.80;;;;;;;15.18;100.00;-15782.50;6277084;22;20387;-71
2021/09/05 06:34:26;;;;;;;0.97;0.87;;;;;;;15.31;100.00;-15246.47;6277842;22;20469;-72
2021/09/05 06:36:55;;;;;;;0.70;0.70;;;;;;;15.43;100.00;-14591.28;6248355;22;20414;-71
2021/09/05 06:39:22;;;;;;;0.90;0.90;;;;;;;15.55;100.00;-14006.28;6276488;22;20413;-72
2021/09/05 06:41:49;;;;;;;2.77;2.67;;;;;;;15.59;100.00;-13364.31;6276971;22;20417;-72
2021/09/05 06:44:16;;;;;;;0.90;0.90;;;;;;;15.73;100.00;-12498.00;6276618;22;20417;-72
2021/09/05 06:46:43;;;;;;;0.70;0.70;;;;;;;15.78;100.00;-11772.00;6276945;22;20383;-73
2021/09/05 06:49:12;;;;;;;0.70;0.60;;;;;;;15.93;100.00;-10942.81;6277242;22;20708;-72
2021/09/05 06:51:39;;;;;;;0.70;0.70;;;;;;;16.06;100.00;-9960.75;6277337;22;20429;-72
2021/09/05 06:54:05;;;;;;;0.80;0.73;;;;;;;16.21;100.00;-9107.50;6248992;22;20410;-72
2021/09/05 06:56:33;;;;;;;0.70;0.60;;;;;;;16.36;100.00;-8159.78;6276248;22;20396;-73
2021/09/05 06:59:00;;;;;;;0.90;0.90;;;;;;;16.54;100.00;-6843.19;6276045;22;20385;-73
2021/09/05 07:01:27;;;;;;;2.23;2.03;;;;;;;16.75;100.00;-5329.72;6248738;22;20437;-73
2021/09/05 07:03:55;;;;;;;0.70;0.60;;;;;;;16.95;100.00;-3758.59;6249722;22;20872;-73
2021/09/05 07:06:23;;;;;;;0.70;0.60;;;;;;;17.24;100.00;-1604.88;6276808;22;20392;-72
2021/09/05 07:08:50;;;;;;;0.80;0.80;;;;;;;17.51;100.00;483.25;6276294;22;20502;-72
2021/09/05 07:11:19;;;;;;;0.70;0.60;;;;;;;17.63;100.00;2210.72;6276368;22;20374;-72
2021/09/05 07:13:46;;;;;;;0.70;0.60;;;;;;;17.89;100.00;4638.50;6249123;22;20394;-72
2021/09/05 07:16:13;;;;;;;0.70;0.60;;;;;;;18.08;100.00;7186.72;6249554;22;20379;-72
2021/09/05 07:18:41;;;;;;;0.70;0.70;;;;;;;18.26;100.00;9338.84;6275964;22;20382;-73
2021/09/05 07:21:08;;;;;;;0.70;0.60;;;;;;;18.63;100.00;11219.09;6249958;22;20432;-73
2021/09/05 07:23:36;;;;;;;0.80;0.70;;;;;;;19.13;100.00;13398.81;6276714;22;20411;-72
2021/09/05 07:26:04;;;;;;;0.80;0.80;;;;;;;19.27;100.00;14270.34;6275332;22;20439;-72
2021/09/05 07:28:33;;;;;;;0.73;0.67;;;;;;;19.60;100.00;14971.00;6275783;22;20483;-72
2021/09/05 07:31:00;;;;;;;0.80;0.70;;;;;;;19.76;100.00;16057.97;6248086;22;20466;-73
2021/09/05 07:33:27;;;;;;;0.70;0.60;;;;;;;20.23;100.00;16325.22;6276208;22;20398;-72
2021/09/05 07:35:55;;;;;;;1.20;1.10;;;;;;;20.44;100.00;10619.19;6274927;22;20425;-74
2021/09/05 07:38:22;;;;;;;2.70;1.07;;;;;;;20.99;100.00;-3591.09;6276492;22;20480;-72
2021/09/05 07:40:51;;;;;;;0.80;0.70;;;;;;;21.30;100.00;-21258.44;6276264;22;20423;-72
2021/09/05 07:43:18;;;;;;;0.87;0.80;;;;;;;21.32;100.00;-21258.84;6248780;22;20844;-73
2021/09/05 07:45:45;;;;;;;1.77;1.67;;;;;;;21.57;100.00;-21265.66;6249788;22;20370;-73
2021/09/05 07:48:32;;;;;;;0.90;0.90;;;;;;;21.53;100.00;-21264.44;6248442;22;20399;-72
2021/09/05 07:51:00;;;;;;;0.80;0.70;;;;;;;21.84;100.00;-21272.75;6277118;22;20367;-73
2021/09/05 07:53:27;;;;;;;0.80;0.80;;;;;;;21.63;100.00;-21267.28;6250759;22;20744;-73
2021/09/05 07:55:55;;;;;;;0.80;0.80;;;;;;;21.79;100.00;-21271.38;6277673;22;20799;-72
2021/09/05 07:58:27;;;;;;;0.80;0.70;;;;;;;21.96;100.00;-21276.00;6278320;22;20396;-72
2021/09/05 08:00:54;;;;;;;0.80;0.70;;;;;;;21.73;100.00;-21269.88;6251878;22;20418;-72
2021/09/05 08:03:21;;;;;;;1.13;1.03;;;;;;;21.94;100.00;-21275.47;6251372;22;20444;-72
2021/09/05 08:05:48;;;;;;;1.27;0.90;;;;;;;22.22;100.00;-21282.84;6276922;22;20828;-72
2021/09/05 08:08:17;;;;;;;0.80;0.70;;;;;;;22.31;100.00;-21285.28;6251436;22;20431;-72
2021/09/05 08:10:44;;;;;;;1.10;1.00;;;;;;;22.42;100.00;-21288.41;6250806;22;20464;-72
2021/09/05 08:13:12;;;;;;;1.00;0.80;;;;;;;22.52;100.00;-21290.88;6278052;22;20346;-72
2021/09/05 08:15:39;;;;;;;0.80;0.67;;;;;;;22.69;100.00;-21295.34;6277202;22;20375;-72
2021/09/05 08:18:06;;;;;;;1.10;1.00;;;;;;;22.30;100.00;-21285.00;6276773;22;20368;-73
2021/09/05 08:20:33;;;;;;;5.63;1.23;;;;;;;22.42;100.00;-21288.28;6250831;22;20405;-73
2021/09/05 08:23:00;;;;;;;0.80;0.60;;;;;;;22.45;100.00;-21288.97;6250626;22;20778;-72
2021/09/05 08:25:27;;;;;;;1.83;1.73;;;;;;;22.65;100.00;-21294.53;6250625;22;20394;-73
2021/09/05 08:27:54;;;;;;;0.80;0.70;;;;;;;22.48;100.00;-21289.78;6276714;22;20404;-73
2021/09/05 08:30:23;;;;;;;1.00;0.90;;;;;;;22.69;100.00;-21295.50;6250519;22;20851;-73
2021/09/05 08:32:50;;;;;;;1.10;0.77;;;;;;;22.82;100.00;-21299.03;6278218;22;20454;-73
2021/09/05 08:35:17;;;;;;;1.00;0.90;;;;;;;23.20;100.00;-21308.97;6277755;22;20387;-73
2021/09/05 08:37:44;;;;;;;0.80;0.80;;;;;;;23.84;100.00;-21326.09;6277630;22;20443;-73
2021/09/05 08:40:12;;;;;;;1.03;0.90;;;;;;;24.14;100.00;-21334.09;6251158;22;20423;-73
2021/09/05 08:43:01;;;;;;;0.70;0.50;;;;;;;24.82;100.00;-21352.16;6255815;22;20981;-73
2021/09/05 08:45:33;;;;;;;0.70;0.60;;;;;;;25.15;100.00;-21360.84;6277952;22;20363;-73
2021/09/05 08:48:01;;;;;;;0.70;0.50;;;;;;;25.45;100.00;-21368.97;6250949;22;20479;-73
2021/09/05 08:50:29;;;;;;;1.10;1.03;;;;;;;25.97;100.00;-21382.66;6277714;22;20383;-73
2021/09/05 08:52:55;;;;;;;1.30;1.00;;;;;;;26.34;100.00;-21392.56;6277404;22;20485;-73
2021/09/05 08:55:23;;;;;;;1.00;0.90;;;;;;;27.15;100.00;-21413.94;6250223;22;20407;-71
2021/09/05 08:57:51;;;;;;;1.00;0.80;;;;;;;27.41;100.00;-21420.97;6251492;22;20402;-72
2021/09/05 09:00:18;;;;;;;1.03;0.93;;;;;;;27.76;100.00;-21430.16;6253399;22;20921;-71
2021/09/05 09:02:49;;;;;;;0.90;0.80;;;;;;;27.92;100.00;-21434.34;6279771;22;20418;-71
2021/09/05 09:05:30;;;;;;;0.90;0.80;;;;;;;28.28;100.00;-21443.91;6252317;22;20401;-72
2021/09/05 09:07:59;;;;;;;0.77;0.67;;;;;;;28.52;100.00;-21450.25;6252851;22;20895;-71
2021/09/05 09:10:26;;;;;;;1.00;0.90;;;;;;;27.86;100.00;-21432.72;6279134;22;20402;-71
2021/09/05 09:12:53;;;;;;;0.80;0.60;;;;;;;28.35;100.00;-21445.66;6249903;22;20766;-72
2021/09/05 09:15:23;;;;;;;1.37;1.27;;;;;;;28.61;100.00;-21452.56;6277939;22;20374;-71
2021/09/05 09:17:55;;;;;;;0.80;0.50;;;;;;;28.67;100.00;-21454.03;6250802;22;20804;-72
2021/09/05 09:20:34;;;;;;;1.33;0.93;;;;;;;29.87;100.00;-21485.72;6276725;22;20395;-71
2021/09/05 09:23:09;;;;;;;1.00;0.90;;;;;;;29.25;100.00;-21469.41;6278623;22;20407;-72
2021/09/05 09:25:36;;;;;;;1.67;1.23;;;;;;;28.58;100.00;-21451.75;6277028;22;20371;-72
2021/09/05 09:28:21;;;;;;;1.30;0.97;;;;;;;29.08;100.00;-21465.09;6275609;22;20403;-72
2021/09/05 09:30:48;;;;;;;0.90;0.70;;;;;;;29.03;100.00;-21463.75;6251002;22;20406;-72
2021/09/05 09:33:20;;;;;;;0.80;0.63;;;;;;;30.21;100.00;-21494.72;6251421;22;20771;-71
2021/09/05 09:35:49;;;;;;;1.93;1.83;;;;;;;29.43;100.00;-21474.25;6250340;22;20405;-71
2021/09/05 09:38:17;;;;;;;1.93;1.07;;;;;;;29.43;100.00;-21474.25;6249706;22;20794;-71
2021/09/05 09:40:44;;;;;;;1.13;0.77;;;;;;;29.71;100.00;-21481.66;6277359;22;20414;-72
2021/09/05 09:43:20;;;;;;;2.13;1.13;;;;;;;29.81;100.00;-21484.34;6250228;22;20367;-72
2021/09/05 09:45:48;;;;;;;0.97;0.63;;;;;;;30.10;100.00;-21491.91;6250172;22;20382;-72
2021/09/05 09:48:25;;;;;;;1.00;0.60;;;;;;;29.80;100.00;-21484.09;6277514;22;20422;-73
2021/09/05 09:50:59;;;;;;;0.93;0.63;;;;;;;30.31;100.00;-21497.41;6277607;22;20394;-72
2021/09/05 09:53:28;;;;;;;1.17;1.07;;;;;;;30.62;100.00;-21505.47;6277492;22;20403;-72
2021/09/05 09:55:57;;;;;;;2.70;2.13;;;;;;;31.45;100.00;-21527.53;6249600;22;20386;-72
2021/09/05 09:58:24;;;;;;;1.20;0.90;;;;;;;30.66;100.00;-21506.69;6248665;22;20430;-72
2021/09/05 10:00:53;;;;;;;1.00;0.70;;;;;;;30.59;100.00;-21504.81;6277737;22;20472;-72
2021/09/05 10:03:22;;;;;;;1.20;1.03;;;;;;;29.79;100.00;-21483.81;6249709;22;20463;-72
2021/09/05 10:05:52;;;;;;;1.33;0.77;;;;;;;29.90;100.00;-21486.50;6277477;22;20424;-72
2021/09/05 10:08:20;;;;;;;2.70;1.03;;;;;;;29.99;100.00;-21489.06;6250430;22;20402;-71
2021/09/05 10:10:48;;;;;;;1.50;0.90;;;;;;;31.63;100.00;-21532.09;6276308;22;20374;-72
2021/09/05 10:13:16;;;;;;;1.77;0.73;;;;;;;31.30;100.00;-21523.50;6275240;22;20370;-72
2021/09/05 10:15:43;;;;;;;1.20;0.97;;;;;;;31.23;100.00;-21521.75;6248464;22;20413;-72
2021/09/05 10:18:12;;;;;;;1.10;0.70;;;;;;;31.55;100.00;-21529.94;6276647;22;20387;-72
2021/09/05 10:20:39;;;;;;;0.90;0.70;;;;;;;31.58;100.00;-21530.88;6276712;22;20461;-73
2021/09/05 10:23:07;;;;;;;1.10;1.00;;;;;;;32.39;100.00;-21552.19;6249676;22;20460;-73
2021/09/05 10:25:36;;;;;;;2.17;1.70;;;;;;;30.93;100.00;-21513.81;6277443;22;20394;-73
2021/09/05 10:28:05;;;;;;;1.17;0.80;;;;;;;30.91;100.00;-21513.16;6250269;22;20397;-73
2021/09/05 10:30:36;;;;;;;1.73;0.90;;;;;;;31.02;100.00;-21516.09;6276307;22;20764;-73
2021/09/05 10:33:03;;;;;;;1.10;0.97;;;;;;;30.86;100.00;-21511.94;6277316;22;20828;-73
2021/09/05 10:35:38;;;;;;;0.90;0.67;;;;;;;31.15;100.00;-21519.59;6276162;22;20417;-72
2021/09/05 10:38:21;;;;;;;0.90;0.50;;;;;;;31.08;100.00;-21517.72;6276806;22;20402;-72
2021/09/05 10:40:52;;;;;;;0.80;0.53;;;;;;;31.00;100.00;-21515.69;6276386;22;20808;-71
2021/09/05 10:43:20;;;;;;;2.17;1.37;;;;;;;31.30;100.00;-21523.50;6276380;22;20695;-72
2021/09/05 10:45:50;;;;;;;1.30;0.90;;;;;;;30.86;100.00;-21511.81;6250263;22;20378;-72
2021/09/05 10:48:36;;;;;;;1.17;0.83;;;;;;;30.62;100.00;-21505.63;6275028;22;20367;-73
2021/09/05 10:51:07;;;;;;;0.90;0.70;;;;;;;30.76;100.00;-21509.38;6276567;22;20491;-72
2021/09/05 10:53:50;;;;;;;1.40;0.90;;;;;;;31.36;100.00;-21524.97;6247333;22;20407;-73
2021/09/05 10:56:21;;;;;;;0.90;0.80;;;;;;;31.02;100.00;-21516.09;6248937;22;20398;-72
2021/09/05 10:58:55;;;;;;;1.33;1.00;;;;;;;31.07;100.00;-21517.44;6249133;22;20429;-72
2021/09/05 11:01:25;;;;;;;1.67;0.93;;;;;;;31.43;100.00;-21526.97;6276849;22;20738;-73
2021/09/05 11:04:29;;;;;;;1.20;1.03;;;;;;;30.71;100.00;-21507.91;6249268;22;20406;-72
2021/09/05 11:07:02;;;;;;;0.87;0.60;;;;;;;31.07;100.00;-21517.44;6276820;22;20390;-72
2021/09/05 11:09:49;;;;;;;1.63;1.13;;;;;;;31.95;100.00;-21540.66;6249619;22;20462;-72
2021/09/05 11:12:35;;;;;;;1.90;1.00;;;;;;;31.58;100.00;-21530.88;6246885;22;20489;-73
2021/09/05 11:15:22;;;;;;;0.90;0.60;;;;;;;30.87;100.00;-21512.06;6276431;22;20405;-72
2021/09/05 11:17:57;;;;;;;0.97;0.80;;;;;;;31.08;100.00;-21517.72;6275039;22;20413;-72
2021/09/05 11:20:29;;;;;;;0.93;0.80;;;;;;;30.87;100.00;-21512.06;6249876;22;20405;-72
2021/09/05 11:22:57;;;;;;;0.90;0.60;;;;;;;30.85;100.00;-21511.53;6277597;22;20992;-73
2021/09/05 11:25:29;;;;;;;0.90;0.73;;;;;;;31.95;100.00;-21540.53;6276725;22;20372;-72
2021/09/05 11:27:59;;;;;;;0.90;0.80;;;;;;;31.49;100.00;-21528.47;6275474;22;20363;-73
2021/09/05 11:30:33;;;;;;;0.80;0.50;;;;;;;31.14;100.00;-21519.31;6248984;22;20429;-72
2021/09/05 11:33:06;;;;;;;1.73;1.30;;;;;;;31.42;100.00;-21526.59;6276643;22;20363;-73
2021/09/05 11:35:39;;;;;;;0.90;0.80;;;;;;;31.61;100.00;-21531.69;6249330;22;20399;-73
2021/09/05 11:38:10;;;;;;;1.10;0.73;;;;;;;31.33;100.00;-21524.28;6275750;22;20425;-72
2021/09/05 11:40:47;;;;;;;0.90;0.80;;;;;;;31.29;100.00;-21523.34;6249498;22;20406;-72
2021/09/05 11:43:28;;;;;;;0.80;0.50;;;;;;;31.09;100.00;-21517.97;6275897;22;20898;-73
2021/09/05 11:45:55;;;;;;;1.00;0.90;;;;;;;30.89;100.00;-21512.59;6249902;22;20375;-72